sensor_id;sensor_type;location;lat;lon;timestamp;P1;durP1;ratioP1;P2;durP2;ratioP2
65037;SDS011;51605;47.040;15.294;2023-02-28T00:01:02;1.20;;;1.05;;
65037;SDS011;51605;47.040;15.294;2023-02-28T00:03:28;1.75;;;1.10;;
65037;SDS011;51605;47.040;15.294;2023-02-28T00:05:53;1.20;;;1.00;;
65037;SDS011;51605;47.040;15.294;2023-02-28T00:08:19;1.65;;;1.00;;
65037;SDS011;51605;47.040;15.294;2023-02-28T00:10:44;1.50;;;1.15;;
65037;SDS011;51605;47.040;15.294;2023-02-28T00:13:10;1.90;;;1.10;;
65037;SDS011;51605;47.040;15.294;2023-02-28T00:15:36;0.80;;;0.80;;
65037;SDS011;51605;47.040;15.294;2023-02-28T00:18:02;1.15;;;0.90;;
65037;SDS011;51605;47.040;15.294;2023-02-28T00:20:28;1.00;;;0.90;;
65037;SDS011;51605;47.040;15.294;2023-02-28T00:22:54;1.30;;;0.93;;
65037;SDS011;51605;47.040;15.294;2023-02-28T00:25:22;1.05;;;0.90;;
65037;SDS011;51605;47.040;15.294;2023-02-28T00:27:49;1.10;;;1.00;;
65037;SDS011;51605;47.040;15.294;2023-02-28T00:30:17;1.23;;;1.10;;
65037;SDS011;51605;47.040;15.294;2023-02-28T00:32:44;1.63;;;1.10;;
65037;SDS011;51605;47.040;15.294;2023-02-28T00:35:10;1.08;;;0.95;;
65037;SDS011;51605;47.040;15.294;2023-02-28T00:37:36;1.00;;;0.90;;
65037;SDS011;51605;47.040;15.294;2023-02-28T00:40:02;1.23;;;1.02;;
65037;SDS011;51605;47.040;15.294;2023-02-28T00:42:32;1.30;;;1.10;;
65037;SDS011;51605;47.040;15.294;2023-02-28T00:44:58;1.20;;;1.00;;
65037;SDS011;51605;47.040;15.294;2023-02-28T00:47:24;1.85;;;1.20;;
65037;SDS011;51605;47.040;15.294;2023-02-28T00:49:50;1.35;;;1.00;;
65037;SDS011;51605;47.040;15.294;2023-02-28T00:52:16;1.42;;;0.90;;
65037;SDS011;51605;47.040;15.294;2023-02-28T00:54:41;1.05;;;0.95;;
65037;SDS011;51605;47.040;15.294;2023-02-28T00:57:07;1.15;;;0.90;;
65037;SDS011;51605;47.040;15.294;2023-02-28T00:59:33;1.38;;;0.90;;
65037;SDS011;51605;47.040;15.294;2023-02-28T01:01:58;1.38;;;0.98;;
65037;SDS011;51605;47.040;15.294;2023-02-28T01:04:24;1.00;;;0.88;;
65037;SDS011;51605;47.040;15.294;2023-02-28T01:06:50;1.25;;;0.90;;
65037;SDS011;51605;47.040;15.294;2023-02-28T01:09:15;1.63;;;1.00;;
65037;SDS011;51605;47.040;15.294;2023-02-28T01:11:41;1.27;;;0.90;;
65037;SDS011;51605;47.040;15.294;2023-02-28T01:14:09;1.15;;;0.90;;
65037;SDS011;51605;47.040;15.294;2023-02-28T01:16:37;1.00;;;0.90;;
65037;SDS011;51605;47.040;15.294;2023-02-28T01:19:03;1.35;;;0.95;;
65037;SDS011;51605;47.040;15.294;2023-02-28T01:21:28;1.55;;;1.02;;
65037;SDS011;51605;47.040;15.294;2023-02-28T01:23:56;0.80;;;0.80;;
65037;SDS011;51605;47.040;15.294;2023-02-28T01:26:22;1.35;;;1.00;;
65037;SDS011;51605;47.040;15.294;2023-02-28T01:28:50;1.03;;;0.87;;
65037;SDS011;51605;47.040;15.294;2023-02-28T01:31:16;1.23;;;1.00;;
65037;SDS011;51605;47.040;15.294;2023-02-28T01:33:43;1.58;;;1.00;;
65037;SDS011;51605;47.040;15.294;2023-02-28T01:38:40;1.05;;;0.82;;
65037;SDS011;51605;47.040;15.294;2023-02-28T01:41:06;1.10;;;0.93;;
65037;SDS011;51605;47.040;15.294;2023-02-28T01:46:07;1.50;;;1.00;;
65037;SDS011;51605;47.040;15.294;2023-02-28T01:48:34;0.95;;;0.88;;
65037;SDS011;51605;47.040;15.294;2023-02-28T01:51:11;1.10;;;0.80;;
65037;SDS011;51605;47.040;15.294;2023-02-28T01:53:45;1.05;;;0.85;;
65037;SDS011;51605;47.040;15.294;2023-02-28T01:56:15;1.02;;;0.93;;
65037;SDS011;51605;47.040;15.294;2023-02-28T01:58:50;1.15;;;0.95;;
65037;SDS011;51605;47.040;15.294;2023-02-28T02:01:18;0.90;;;0.90;;
65037;SDS011;51605;47.040;15.294;2023-02-28T02:03:51;1.00;;;0.90;;
65037;SDS011;51605;47.040;15.294;2023-02-28T02:06:25;1.30;;;0.80;;
65037;SDS011;51605;47.040;15.294;2023-02-28T02:08:54;1.15;;;0.90;;
65037;SDS011;51605;47.040;15.294;2023-02-28T02:11:20;1.00;;;0.90;;
65037;SDS011;51605;47.040;15.294;2023-02-28T02:14:25;1.10;;;1.00;;
65037;SDS011;51605;47.040;15.294;2023-02-28T02:28:10;1.23;;;0.90;;
65037;SDS011;51605;47.040;15.294;2023-02-28T02:31:16;1.33;;;1.00;;
65037;SDS011;51605;47.040;15.294;2023-02-28T02:36:49;1.00;;;0.90;;
65037;SDS011;51605;47.040;15.294;2023-02-28T02:39:42;1.40;;;1.00;;
65037;SDS011;51605;47.040;15.294;2023-02-28T02:42:15;1.13;;;0.90;;
65037;SDS011;51605;47.040;15.294;2023-02-28T02:44:48;0.98;;;0.88;;
65037;SDS011;51605;47.040;15.294;2023-02-28T02:47:20;2.25;;;0.88;;
65037;SDS011;51605;47.040;15.294;2023-02-28T02:49:54;1.05;;;0.90;;
65037;SDS011;51605;47.040;15.294;2023-02-28T02:52:23;1.35;;;0.98;;
65037;SDS011;51605;47.040;15.294;2023-02-28T02:54:55;1.17;;;1.00;;
65037;SDS011;51605;47.040;15.294;2023-02-28T02:57:24;1.20;;;0.90;;
65037;SDS011;51605;47.040;15.294;2023-02-28T02:59:58;1.02;;;0.93;;
65037;SDS011;51605;47.040;15.294;2023-02-28T03:02:26;2.22;;;1.00;;
65037;SDS011;51605;47.040;15.294;2023-02-28T03:04:59;0.95;;;0.88;;
65037;SDS011;51605;47.040;15.294;2023-02-28T03:07:29;0.80;;;0.80;;
65037;SDS011;51605;47.040;15.294;2023-02-28T03:09:55;1.00;;;0.90;;
65037;SDS011;51605;47.040;15.294;2023-02-28T03:14:55;1.30;;;0.90;;
65037;SDS011;51605;47.040;15.294;2023-02-28T03:20:07;0.80;;;0.80;;
65037;SDS011;51605;47.040;15.294;2023-02-28T03:23:38;0.80;;;0.80;;
65037;SDS011;51605;47.040;15.294;2023-02-28T03:26:22;1.45;;;1.10;;
65037;SDS011;51605;47.040;15.294;2023-02-28T03:28:50;1.00;;;0.90;;
65037;SDS011;51605;47.040;15.294;2023-02-28T03:31:22;1.00;;;0.90;;
65037;SDS011;51605;47.040;15.294;2023-02-28T03:33:59;1.00;;;0.80;;
65037;SDS011;51605;47.040;15.294;2023-02-28T03:36:30;1.02;;;0.90;;
65037;SDS011;51605;47.040;15.294;2023-02-28T03:39:07;1.10;;;0.90;;
65037;SDS011;51605;47.040;15.294;2023-02-28T03:41:59;0.98;;;0.85;;
65037;SDS011;51605;47.040;15.294;2023-02-28T03:44:30;1.33;;;0.90;;
65037;SDS011;51605;47.040;15.294;2023-02-28T03:47:01;2.22;;;0.90;;
65037;SDS011;51605;47.040;15.294;2023-02-28T03:49:42;0.85;;;0.80;;
65037;SDS011;51605;47.040;15.294;2023-02-28T03:52:14;1.20;;;1.00;;
65037;SDS011;51605;47.040;15.294;2023-02-28T03:54:45;0.80;;;0.80;;
65037;SDS011;51605;47.040;15.294;2023-02-28T03:57:39;0.90;;;0.80;;
65037;SDS011;51605;47.040;15.294;2023-02-28T04:00:14;1.35;;;1.00;;
65037;SDS011;51605;47.040;15.294;2023-02-28T04:02:44;0.80;;;0.80;;
65037;SDS011;51605;47.040;15.294;2023-02-28T04:05:10;0.88;;;0.80;;
65037;SDS011;51605;47.040;15.294;2023-02-28T04:07:36;0.80;;;0.70;;
65037;SDS011;51605;47.040;15.294;2023-02-28T04:10:03;0.80;;;0.80;;
65037;SDS011;51605;47.040;15.294;2023-02-28T04:12:29;1.08;;;0.90;;
65037;SDS011;51605;47.040;15.294;2023-02-28T04:14:54;1.73;;;1.00;;
65037;SDS011;51605;47.040;15.294;2023-02-28T04:17:20;1.30;;;0.95;;
65037;SDS011;51605;47.040;15.294;2023-02-28T04:19:46;2.17;;;1.20;;
65037;SDS011;51605;47.040;15.294;2023-02-28T04:22:11;0.70;;;0.70;;
65037;SDS011;51605;47.040;15.294;2023-02-28T04:24:37;1.17;;;0.85;;
65037;SDS011;51605;47.040;15.294;2023-02-28T04:27:06;1.20;;;1.00;;
65037;SDS011;51605;47.040;15.294;2023-02-28T04:29:33;1.00;;;0.90;;
65037;SDS011;51605;47.040;15.294;2023-02-28T04:31:59;1.73;;;0.80;;
65037;SDS011;51605;47.040;15.294;2023-02-28T04:34:26;1.00;;;0.85;;
65037;SDS011;51605;47.040;15.294;2023-02-28T04:36:53;2.45;;;0.98;;
65037;SDS011;51605;47.040;15.294;2023-02-28T04:39:20;0.98;;;0.80;;
65037;SDS011;51605;47.040;15.294;2023-02-28T04:41:46;1.42;;;1.00;;
65037;SDS011;51605;47.040;15.294;2023-02-28T04:44:12;2.03;;;1.00;;
65037;SDS011;51605;47.040;15.294;2023-02-28T04:46:38;1.10;;;0.90;;
65037;SDS011;51605;47.040;15.294;2023-02-28T04:49:04;1.00;;;0.90;;
65037;SDS011;51605;47.040;15.294;2023-02-28T04:51:30;0.88;;;0.70;;
65037;SDS011;51605;47.040;15.294;2023-02-28T04:53:55;0.77;;;0.70;;
65037;SDS011;51605;47.040;15.294;2023-02-28T04:56:21;1.55;;;0.80;;
65037;SDS011;51605;47.040;15.294;2023-02-28T04:58:47;1.00;;;0.90;;
65037;SDS011;51605;47.040;15.294;2023-02-28T05:01:19;1.52;;;0.90;;
65037;SDS011;51605;47.040;15.294;2023-02-28T05:03:49;0.82;;;0.80;;
65037;SDS011;51605;47.040;15.294;2023-02-28T05:06:16;1.05;;;0.80;;
65037;SDS011;51605;47.040;15.294;2023-02-28T05:08:42;1.52;;;0.90;;
65037;SDS011;51605;47.040;15.294;2023-02-28T05:11:18;1.00;;;0.80;;
65037;SDS011;51605;47.040;15.294;2023-02-28T05:13:44;0.80;;;0.80;;
65037;SDS011;51605;47.040;15.294;2023-02-28T05:16:10;1.33;;;0.90;;
65037;SDS011;51605;47.040;15.294;2023-02-28T05:18:36;0.90;;;0.80;;
65037;SDS011;51605;47.040;15.294;2023-02-28T05:21:02;1.25;;;0.85;;
65037;SDS011;51605;47.040;15.294;2023-02-28T05:23:28;1.05;;;0.80;;
65037;SDS011;51605;47.040;15.294;2023-02-28T05:25:54;0.90;;;0.85;;
65037;SDS011;51605;47.040;15.294;2023-02-28T05:28:20;1.17;;;0.90;;
65037;SDS011;51605;47.040;15.294;2023-02-28T05:30:46;0.80;;;0.80;;
65037;SDS011;51605;47.040;15.294;2023-02-28T05:33:12;1.10;;;0.83;;
65037;SDS011;51605;47.040;15.294;2023-02-28T05:35:38;0.70;;;0.70;;
65037;SDS011;51605;47.040;15.294;2023-02-28T05:38:07;0.82;;;0.80;;
65037;SDS011;51605;47.040;15.294;2023-02-28T05:40:33;0.70;;;0.70;;
65037;SDS011;51605;47.040;15.294;2023-02-28T05:42:59;0.75;;;0.75;;
65037;SDS011;51605;47.040;15.294;2023-02-28T05:45:25;1.00;;;0.90;;
65037;SDS011;51605;47.040;15.294;2023-02-28T05:47:54;0.80;;;0.80;;
65037;SDS011;51605;47.040;15.294;2023-02-28T05:50:19;1.33;;;0.90;;
65037;SDS011;51605;47.040;15.294;2023-02-28T05:52:51;0.80;;;0.80;;
65037;SDS011;51605;47.040;15.294;2023-02-28T05:55:17;0.93;;;0.77;;
65037;SDS011;51605;47.040;15.294;2023-02-28T05:57:43;1.02;;;0.90;;
65037;SDS011;51605;47.040;15.294;2023-02-28T06:00:09;0.90;;;0.70;;
65037;SDS011;51605;47.040;15.294;2023-02-28T06:02:36;1.17;;;0.90;;
65037;SDS011;51605;47.040;15.294;2023-02-28T06:05:03;0.85;;;0.80;;
65037;SDS011;51605;47.040;15.294;2023-02-28T06:07:29;1.02;;;0.95;;
65037;SDS011;51605;47.040;15.294;2023-02-28T06:09:54;0.70;;;0.65;;
65037;SDS011;51605;47.040;15.294;2023-02-28T06:12:20;1.00;;;0.90;;
65037;SDS011;51605;47.040;15.294;2023-02-28T06:14:45;0.80;;;0.80;;
65037;SDS011;51605;47.040;15.294;2023-02-28T06:17:11;1.63;;;0.85;;
65037;SDS011;51605;47.040;15.294;2023-02-28T06:19:37;1.20;;;0.90;;
65037;SDS011;51605;47.040;15.294;2023-02-28T06:22:06;1.67;;;0.70;;
65037;SDS011;51605;47.040;15.294;2023-02-28T06:24:31;1.08;;;0.90;;
65037;SDS011;51605;47.040;15.294;2023-02-28T06:26:57;1.50;;;0.80;;
65037;SDS011;51605;47.040;15.294;2023-02-28T06:29:29;0.80;;;0.80;;
65037;SDS011;51605;47.040;15.294;2023-02-28T06:31:59;1.27;;;0.90;;
65037;SDS011;51605;47.040;15.294;2023-02-28T06:34:24;0.93;;;0.82;;
65037;SDS011;51605;47.040;15.294;2023-02-28T06:36:50;1.30;;;0.88;;
65037;SDS011;51605;47.040;15.294;2023-02-28T06:39:17;1.55;;;1.00;;
65037;SDS011;51605;47.040;15.294;2023-02-28T06:41:43;0.70;;;0.70;;
65037;SDS011;51605;47.040;15.294;2023-02-28T06:44:14;0.93;;;0.85;;
65037;SDS011;51605;47.040;15.294;2023-02-28T06:46:42;1.50;;;1.00;;
65037;SDS011;51605;47.040;15.294;2023-02-28T06:49:10;2.25;;;0.82;;
65037;SDS011;51605;47.040;15.294;2023-02-28T06:51:36;0.68;;;0.68;;
65037;SDS011;51605;47.040;15.294;2023-02-28T06:54:04;0.90;;;0.90;;
65037;SDS011;51605;47.040;15.294;2023-02-28T06:56:33;1.17;;;0.98;;
65037;SDS011;51605;47.040;15.294;2023-02-28T06:58:59;1.10;;;0.90;;
65037;SDS011;51605;47.040;15.294;2023-02-28T07:01:25;1.35;;;0.95;;
65037;SDS011;51605;47.040;15.294;2023-02-28T07:03:52;2.47;;;0.90;;
65037;SDS011;51605;47.040;15.294;2023-02-28T07:06:21;2.75;;;1.08;;
65037;SDS011;51605;47.040;15.294;2023-02-28T07:08:48;1.40;;;0.90;;
65037;SDS011;51605;47.040;15.294;2023-02-28T07:11:15;1.27;;;1.00;;
65037;SDS011;51605;47.040;15.294;2023-02-28T07:13:40;1.60;;;1.10;;
65037;SDS011;51605;47.040;15.294;2023-02-28T07:16:07;2.83;;;1.38;;
65037;SDS011;51605;47.040;15.294;2023-02-28T07:18:35;1.70;;;1.15;;
65037;SDS011;51605;47.040;15.294;2023-02-28T07:21:02;1.20;;;1.10;;
65037;SDS011;51605;47.040;15.294;2023-02-28T07:23:29;1.80;;;1.20;;
65037;SDS011;51605;47.040;15.294;2023-02-28T07:25:54;2.35;;;1.20;;
65037;SDS011;51605;47.040;15.294;2023-02-28T07:28:20;1.55;;;1.08;;
65037;SDS011;51605;47.040;15.294;2023-02-28T07:30:46;1.65;;;1.20;;
65037;SDS011;51605;47.040;15.294;2023-02-28T07:33:12;1.08;;;0.98;;
65037;SDS011;51605;47.040;15.294;2023-02-28T07:35:38;1.35;;;1.10;;
65037;SDS011;51605;47.040;15.294;2023-02-28T07:38:04;1.20;;;1.08;;
65037;SDS011;51605;47.040;15.294;2023-02-28T07:40:29;2.60;;;1.40;;
65037;SDS011;51605;47.040;15.294;2023-02-28T07:42:55;2.08;;;1.30;;
65037;SDS011;51605;47.040;15.294;2023-02-28T07:45:21;2.05;;;1.20;;
65037;SDS011;51605;47.040;15.294;2023-02-28T07:47:47;1.92;;;1.30;;
65037;SDS011;51605;47.040;15.294;2023-02-28T07:50:14;2.65;;;1.40;;
65037;SDS011;51605;47.040;15.294;2023-02-28T07:52:40;1.83;;;1.25;;
65037;SDS011;51605;47.040;15.294;2023-02-28T07:55:06;1.95;;;1.30;;
65037;SDS011;51605;47.040;15.294;2023-02-28T07:57:34;1.58;;;1.23;;
65037;SDS011;51605;47.040;15.294;2023-02-28T08:00:00;1.38;;;1.10;;
65037;SDS011;51605;47.040;15.294;2023-02-28T08:02:28;1.80;;;1.30;;
65037;SDS011;51605;47.040;15.294;2023-02-28T08:04:53;3.22;;;1.40;;
65037;SDS011;51605;47.040;15.294;2023-02-28T08:07:19;2.42;;;1.50;;
65037;SDS011;51605;47.040;15.294;2023-02-28T08:09:45;2.17;;;1.50;;
65037;SDS011;51605;47.040;15.294;2023-02-28T08:12:10;3.60;;;1.48;;
65037;SDS011;51605;47.040;15.294;2023-02-28T08:14:37;2.40;;;1.50;;
65037;SDS011;51605;47.040;15.294;2023-02-28T08:17:03;3.33;;;1.43;;
65037;SDS011;51605;47.040;15.294;2023-02-28T08:19:29;2.63;;;1.50;;
65037;SDS011;51605;47.040;15.294;2023-02-28T08:21:56;2.08;;;1.40;;
65037;SDS011;51605;47.040;15.294;2023-02-28T08:24:22;2.25;;;1.40;;
65037;SDS011;51605;47.040;15.294;2023-02-28T08:26:48;2.20;;;1.50;;
65037;SDS011;51605;47.040;15.294;2023-02-28T08:29:13;1.95;;;1.20;;
65037;SDS011;51605;47.040;15.294;2023-02-28T08:31:39;2.75;;;1.65;;
65037;SDS011;51605;47.040;15.294;2023-02-28T08:34:06;2.30;;;1.50;;
65037;SDS011;51605;47.040;15.294;2023-02-28T08:38:59;2.15;;;1.48;;
65037;SDS011;51605;47.040;15.294;2023-02-28T08:41:24;2.08;;;1.40;;
65037;SDS011;51605;47.040;15.294;2023-02-28T08:43:51;2.70;;;1.50;;
65037;SDS011;51605;47.040;15.294;2023-02-28T08:46:16;1.95;;;1.42;;
65037;SDS011;51605;47.040;15.294;2023-02-28T08:48:42;3.10;;;1.70;;
65037;SDS011;51605;47.040;15.294;2023-02-28T08:51:15;2.10;;;1.50;;
65037;SDS011;51605;47.040;15.294;2023-02-28T08:53:43;3.08;;;1.35;;
65037;SDS011;51605;47.040;15.294;2023-02-28T08:56:12;2.80;;;1.60;;
65037;SDS011;51605;47.040;15.294;2023-02-28T08:58:38;2.30;;;1.60;;
65037;SDS011;51605;47.040;15.294;2023-02-28T09:03:57;2.30;;;1.65;;
65037;SDS011;51605;47.040;15.294;2023-02-28T09:06:24;2.37;;;1.60;;
65037;SDS011;51605;47.040;15.294;2023-02-28T09:08:51;2.63;;;1.73;;
65037;SDS011;51605;47.040;15.294;2023-02-28T09:11:17;2.50;;;1.65;;
65037;SDS011;51605;47.040;15.294;2023-02-28T09:13:44;2.97;;;1.80;;
65037;SDS011;51605;47.040;15.294;2023-02-28T09:16:11;3.40;;;1.88;;
65037;SDS011;51605;47.040;15.294;2023-02-28T09:18:39;2.20;;;1.60;;
65037;SDS011;51605;47.040;15.294;2023-02-28T09:21:05;2.88;;;1.80;;
65037;SDS011;51605;47.040;15.294;2023-02-28T09:23:31;2.13;;;1.42;;
65037;SDS011;51605;47.040;15.294;2023-02-28T09:25:57;2.05;;;1.45;;
65037;SDS011;51605;47.040;15.294;2023-02-28T09:28:23;2.40;;;1.63;;
65037;SDS011;51605;47.040;15.294;2023-02-28T09:30:50;2.53;;;1.80;;
65037;SDS011;51605;47.040;15.294;2023-02-28T09:33:18;3.13;;;1.67;;
65037;SDS011;51605;47.040;15.294;2023-02-28T09:35:46;3.20;;;1.80;;
65037;SDS011;51605;47.040;15.294;2023-02-28T09:38:12;2.80;;;1.88;;
65037;SDS011;51605;47.040;15.294;2023-02-28T09:40:48;2.97;;;1.83;;
65037;SDS011;51605;47.040;15.294;2023-02-28T09:43:18;2.42;;;1.75;;
65037;SDS011;51605;47.040;15.294;2023-02-28T09:45:52;3.53;;;1.60;;
65037;SDS011;51605;47.040;15.294;2023-02-28T09:48:34;3.42;;;1.70;;
65037;SDS011;51605;47.040;15.294;2023-02-28T09:53:39;2.20;;;1.60;;
65037;SDS011;51605;47.040;15.294;2023-02-28T09:56:09;2.80;;;1.60;;
65037;SDS011;51605;47.040;15.294;2023-02-28T09:58:56;2.72;;;1.88;;
65037;SDS011;51605;47.040;15.294;2023-02-28T10:01:33;2.67;;;1.70;;
65037;SDS011;51605;47.040;15.294;2023-02-28T10:06:47;2.67;;;1.70;;
65037;SDS011;51605;47.040;15.294;2023-02-28T10:11:44;2.45;;;1.50;;
65037;SDS011;51605;47.040;15.294;2023-02-28T10:22:00;2.42;;;1.83;;
65037;SDS011;51605;47.040;15.294;2023-02-28T10:24:35;2.55;;;1.70;;
65037;SDS011;51605;47.040;15.294;2023-02-28T10:27:12;2.90;;;1.90;;
65037;SDS011;51605;47.040;15.294;2023-02-28T10:29:45;2.55;;;1.80;;
65037;SDS011;51605;47.040;15.294;2023-02-28T10:32:14;2.55;;;1.70;;
65037;SDS011;51605;47.040;15.294;2023-02-28T10:34:55;3.35;;;1.88;;
65037;SDS011;51605;47.040;15.294;2023-02-28T10:37:31;2.63;;;1.83;;
65037;SDS011;51605;47.040;15.294;2023-02-28T10:39:57;3.28;;;1.90;;
65037;SDS011;51605;47.040;15.294;2023-02-28T10:45:12;2.45;;;1.80;;
65037;SDS011;51605;47.040;15.294;2023-02-28T10:48:04;3.17;;;2.00;;
65037;SDS011;51605;47.040;15.294;2023-02-28T10:56:02;2.83;;;1.80;;
65037;SDS011;51605;47.040;15.294;2023-02-28T11:04:01;2.78;;;1.95;;
65037;SDS011;51605;47.040;15.294;2023-02-28T11:06:31;3.13;;;1.80;;
65037;SDS011;51605;47.040;15.294;2023-02-28T11:08:59;2.78;;;1.80;;
65037;SDS011;51605;47.040;15.294;2023-02-28T11:11:28;3.40;;;1.90;;
65037;SDS011;51605;47.040;15.294;2023-02-28T11:13:57;2.38;;;1.70;;
65037;SDS011;51605;47.040;15.294;2023-02-28T11:16:33;2.50;;;1.70;;
65037;SDS011;51605;47.040;15.294;2023-02-28T11:19:02;3.15;;;1.98;;
65037;SDS011;51605;47.040;15.294;2023-02-28T11:21:29;2.97;;;1.80;;
65037;SDS011;51605;47.040;15.294;2023-02-28T11:24:02;2.70;;;1.90;;
65037;SDS011;51605;47.040;15.294;2023-02-28T11:26:39;2.40;;;1.67;;
65037;SDS011;51605;47.040;15.294;2023-02-28T11:29:12;2.63;;;1.90;;
65037;SDS011;51605;47.040;15.294;2023-02-28T11:31:41;2.28;;;1.70;;
65037;SDS011;51605;47.040;15.294;2023-02-28T11:34:40;2.85;;;1.88;;
65037;SDS011;51605;47.040;15.294;2023-02-28T11:37:00;2.70;;;1.70;;
65037;SDS011;51605;47.040;15.294;2023-02-28T11:39:29;2.80;;;1.98;;
65037;SDS011;51605;47.040;15.294;2023-02-28T11:47:54;2.58;;;1.90;;
65037;SDS011;51605;47.040;15.294;2023-02-28T11:56:06;2.30;;;1.80;;
65037;SDS011;51605;47.040;15.294;2023-02-28T12:06:52;3.30;;;1.85;;
65037;SDS011;51605;47.040;15.294;2023-02-28T12:11:52;3.42;;;2.10;;
65037;SDS011;51605;47.040;15.294;2023-02-28T12:27:46;2.53;;;1.73;;
65037;SDS011;51605;47.040;15.294;2023-02-28T12:30:18;2.38;;;1.70;;
65037;SDS011;51605;47.040;15.294;2023-02-28T12:33:12;3.42;;;1.73;;
65037;SDS011;51605;47.040;15.294;2023-02-28T12:35:51;2.80;;;1.80;;
65037;SDS011;51605;47.040;15.294;2023-02-28T12:38:26;3.08;;;2.05;;
65037;SDS011;51605;47.040;15.294;2023-02-28T12:41:00;2.70;;;1.92;;
65037;SDS011;51605;47.040;15.294;2023-02-28T12:43:33;2.45;;;1.80;;
65037;SDS011;51605;47.040;15.294;2023-02-28T12:46:18;2.58;;;1.80;;
65037;SDS011;51605;47.040;15.294;2023-02-28T12:48:48;3.10;;;1.83;;
65037;SDS011;51605;47.040;15.294;2023-02-28T12:51:18;2.75;;;1.92;;
65037;SDS011;51605;47.040;15.294;2023-02-28T12:53:49;2.45;;;1.80;;
65037;SDS011;51605;47.040;15.294;2023-02-28T13:10:44;3.55;;;2.15;;
65037;SDS011;51605;47.040;15.294;2023-02-28T13:13:16;2.88;;;2.00;;
65037;SDS011;51605;47.040;15.294;2023-02-28T13:16:05;3.03;;;2.10;;
65037;SDS011;51605;47.040;15.294;2023-02-28T13:32:18;2.90;;;1.90;;
65037;SDS011;51605;47.040;15.294;2023-02-28T13:47:41;3.60;;;2.10;;
65037;SDS011;51605;47.040;15.294;2023-02-28T13:50:32;2.78;;;1.88;;
65037;SDS011;51605;47.040;15.294;2023-02-28T13:58:36;2.97;;;2.10;;
65037;SDS011;51605;47.040;15.294;2023-02-28T14:07:08;2.72;;;1.80;;
65037;SDS011;51605;47.040;15.294;2023-02-28T14:09:44;2.25;;;1.40;;
65037;SDS011;51605;47.040;15.294;2023-02-28T14:15:26;4.10;;;2.00;;
65037;SDS011;51605;47.040;15.294;2023-02-28T14:17:55;2.72;;;1.85;;
65037;SDS011;51605;47.040;15.294;2023-02-28T14:20:22;3.45;;;2.00;;
65037;SDS011;51605;47.040;15.294;2023-02-28T14:23:16;2.78;;;1.95;;
65037;SDS011;51605;47.040;15.294;2023-02-28T14:28:45;2.80;;;2.00;;
65037;SDS011;51605;47.040;15.294;2023-02-28T14:31:23;2.85;;;1.73;;
65037;SDS011;51605;47.040;15.294;2023-02-28T14:34:02;3.08;;;1.98;;
65037;SDS011;51605;47.040;15.294;2023-02-28T14:36:32;2.30;;;1.80;;
65037;SDS011;51605;47.040;15.294;2023-02-28T14:39:22;3.13;;;1.98;;
65037;SDS011;51605;47.040;15.294;2023-02-28T14:41:47;3.72;;;2.00;;
65037;SDS011;51605;47.040;15.294;2023-02-28T14:44:18;4.65;;;1.88;;
65037;SDS011;51605;47.040;15.294;2023-02-28T14:46:46;2.92;;;1.90;;
65037;SDS011;51605;47.040;15.294;2023-02-28T14:49:17;2.63;;;1.80;;
65037;SDS011;51605;47.040;15.294;2023-02-28T14:52:12;2.70;;;1.92;;
65037;SDS011;51605;47.040;15.294;2023-02-28T14:54:42;3.10;;;1.90;;
65037;SDS011;51605;47.040;15.294;2023-02-28T14:59:58;2.40;;;1.70;;
65037;SDS011;51605;47.040;15.294;2023-02-28T15:02:43;3.60;;;1.80;;
65037;SDS011;51605;47.040;15.294;2023-02-28T15:07:43;3.00;;;1.65;;
65037;SDS011;51605;47.040;15.294;2023-02-28T15:15:26;3.00;;;1.98;;
65037;SDS011;51605;47.040;15.294;2023-02-28T15:18:36;2.25;;;1.52;;
65037;SDS011;51605;47.040;15.294;2023-02-28T15:21:07;6.18;;;1.92;;
65037;SDS011;51605;47.040;15.294;2023-02-28T15:23:38;3.15;;;1.90;;
65037;SDS011;51605;47.040;15.294;2023-02-28T15:26:09;2.40;;;1.80;;
65037;SDS011;51605;47.040;15.294;2023-02-28T15:28:40;2.42;;;1.80;;
65037;SDS011;51605;47.040;15.294;2023-02-28T15:31:17;2.55;;;1.90;;
65037;SDS011;51605;47.040;15.294;2023-02-28T15:33:57;2.72;;;1.95;;
65037;SDS011;51605;47.040;15.294;2023-02-28T15:36:32;4.88;;;1.92;;
65037;SDS011;51605;47.040;15.294;2023-02-28T15:39:02;3.08;;;1.90;;
65037;SDS011;51605;47.040;15.294;2023-02-28T15:41:43;3.63;;;1.80;;
65037;SDS011;51605;47.040;15.294;2023-02-28T15:44:23;3.22;;;2.08;;
65037;SDS011;51605;47.040;15.294;2023-02-28T15:46:59;3.28;;;2.30;;
65037;SDS011;51605;47.040;15.294;2023-02-28T15:49:33;3.03;;;1.90;;
65037;SDS011;51605;47.040;15.294;2023-02-28T15:52:05;4.25;;;1.95;;
65037;SDS011;51605;47.040;15.294;2023-02-28T15:54:33;3.50;;;1.85;;
65037;SDS011;51605;47.040;15.294;2023-02-28T15:57:03;2.60;;;1.90;;
65037;SDS011;51605;47.040;15.294;2023-02-28T15:59:33;2.88;;;2.00;;
65037;SDS011;51605;47.040;15.294;2023-02-28T16:02:02;2.72;;;1.90;;
65037;SDS011;51605;47.040;15.294;2023-02-28T16:04:34;4.28;;;2.10;;
65037;SDS011;51605;47.040;15.294;2023-02-28T16:07:03;2.92;;;2.00;;
65037;SDS011;51605;47.040;15.294;2023-02-28T16:09:33;2.42;;;1.75;;
65037;SDS011;51605;47.040;15.294;2023-02-28T16:11:59;2.53;;;1.73;;
65037;SDS011;51605;47.040;15.294;2023-02-28T16:14:27;3.70;;;1.90;;
65037;SDS011;51605;47.040;15.294;2023-02-28T16:17:05;2.80;;;2.03;;
65037;SDS011;51605;47.040;15.294;2023-02-28T16:19:33;2.38;;;1.80;;
65037;SDS011;51605;47.040;15.294;2023-02-28T16:21:59;2.70;;;1.88;;
65037;SDS011;51605;47.040;15.294;2023-02-28T16:24:29;3.40;;;2.00;;
65037;SDS011;51605;47.040;15.294;2023-02-28T16:26:55;2.70;;;2.10;;
65037;SDS011;51605;47.040;15.294;2023-02-28T16:29:40;3.05;;;2.00;;
65037;SDS011;51605;47.040;15.294;2023-02-28T16:32:06;5.38;;;2.17;;
65037;SDS011;51605;47.040;15.294;2023-02-28T16:34:32;18.17;;;3.42;;
65037;SDS011;51605;47.040;15.294;2023-02-28T16:36:58;10.40;;;2.60;;
65037;SDS011;51605;47.040;15.294;2023-02-28T16:39:23;5.72;;;2.13;;
65037;SDS011;51605;47.040;15.294;2023-02-28T16:41:49;5.53;;;2.45;;
65037;SDS011;51605;47.040;15.294;2023-02-28T16:44:32;8.48;;;3.15;;
65037;SDS011;51605;47.040;15.294;2023-02-28T16:47:00;6.53;;;2.40;;
65037;SDS011;51605;47.040;15.294;2023-02-28T16:49:26;8.88;;;2.70;;
65037;SDS011;51605;47.040;15.294;2023-02-28T16:51:52;7.22;;;2.40;;
65037;SDS011;51605;47.040;15.294;2023-02-28T16:54:18;5.65;;;2.35;;
65037;SDS011;51605;47.040;15.294;2023-02-28T16:56:45;4.88;;;2.17;;
65037;SDS011;51605;47.040;15.294;2023-02-28T16:59:13;6.13;;;2.50;;
65037;SDS011;51605;47.040;15.294;2023-02-28T17:01:45;9.10;;;2.35;;
65037;SDS011;51605;47.040;15.294;2023-02-28T17:04:11;7.70;;;2.33;;
65037;SDS011;51605;47.040;15.294;2023-02-28T17:06:37;5.88;;;2.15;;
65037;SDS011;51605;47.040;15.294;2023-02-28T17:09:08;6.80;;;2.55;;
65037;SDS011;51605;47.040;15.294;2023-02-28T17:11:40;5.13;;;2.28;;
65037;SDS011;51605;47.040;15.294;2023-02-28T17:14:06;7.15;;;2.47;;
65037;SDS011;51605;47.040;15.294;2023-02-28T17:16:32;5.68;;;2.20;;
65037;SDS011;51605;47.040;15.294;2023-02-28T17:19:01;6.10;;;2.40;;
65037;SDS011;51605;47.040;15.294;2023-02-28T17:21:29;5.85;;;2.40;;
65037;SDS011;51605;47.040;15.294;2023-02-28T17:23:56;5.57;;;2.10;;
65037;SDS011;51605;47.040;15.294;2023-02-28T17:26:22;5.35;;;2.10;;
65037;SDS011;51605;47.040;15.294;2023-02-28T17:28:51;8.93;;;2.40;;
65037;SDS011;51605;47.040;15.294;2023-02-28T17:31:19;3.72;;;2.20;;
65037;SDS011;51605;47.040;15.294;2023-02-28T17:33:45;4.03;;;2.30;;